Time;durP1;ratioP1;P1;durP2;ratioP2;P2;SDS_P1;SDS_P2;PMS_P1;PMS_P2;Temp;Humidity;BMP_temperature;BMP_pressure;BME280_temperature;BME280_humidity;BME280_pressure;Samples;Min_cycle;Max_cycle;Signal;HPM_P1;HPM_P2
2021/01/11 08:36:56;;;;;;;32.67;17.53;;;;;;;-4.50;94.09;99655.19;5127158;27;20659;-78
2021/01/11 08:39:24;;;;;;;31.93;18.90;;;;;;;-3.99;95.22;99653.09;5126153;27;40815;-79
2021/01/11 08:41:54;;;;;;;30.30;17.70;;;;;;;-3.50;94.93;99657.75;5091534;27;40896;-79
2021/01/11 08:44:33;;;;;;;29.33;17.43;;;;;;;-3.02;93.25;99651.97;5091227;27;42013;-79
2021/01/11 08:47:07;;;;;;;74.80;39.70;;;;;;;-2.74;90.35;99637.41;5120942;22;41715;-78
2021/01/11 08:49:36;;;;;;;31.93;19.73;;;;;;;-2.34;88.06;99648.72;5025278;28;39062;-79
2021/01/11 08:52:09;;;;;;;31.07;17.30;;;;;;;-2.28;85.84;99622.81;5023218;28;40785;-80
2021/01/11 08:54:37;;;;;;;27.20;16.30;;;;;;;-1.99;84.25;99641.00;5027998;28;42728;-79
2021/01/11 08:57:13;;;;;;;24.40;15.20;;;;;;;-1.91;83.40;99629.75;5128740;22;42877;-78
2021/01/11 08:59:49;;;;;;;25.27;16.20;;;;;;;-1.77;82.49;99647.06;5041610;28;40696;-81
2021/01/11 09:02:24;;;;;;;26.63;16.50;;;;;;;-1.64;81.74;99639.25;5023331;28;41343;-79
2021/01/11 09:04:51;;;;;;;29.53;16.70;;;;;;;-1.72;81.17;99608.94;5008149;28;43855;-79
2021/01/11 09:07:30;;;;;;;26.13;16.27;;;;;;;-1.36;80.67;99640.06;5025041;28;41233;-79
2021/01/11 09:09:59;;;;;;;27.83;16.53;;;;;;;-1.34;79.76;99633.13;5106726;22;39979;-79
2021/01/11 09:12:31;;;;;;;27.13;17.30;;;;;;;-1.30;79.33;99632.25;5043635;28;41568;-80
2021/01/11 09:14:58;;;;;;;27.83;16.50;;;;;;;-1.25;78.45;99622.72;5044221;28;41855;-79
2021/01/11 09:17:27;;;;;;;28.67;17.10;;;;;;;-1.01;77.83;99644.31;5045490;28;42194;-79
2021/01/11 09:20:02;;;;;;;24.93;15.83;;;;;;;-1.01;77.46;99641.72;5078765;22;39080;31
2021/01/11 09:22:40;;;;;;;24.03;15.23;;;;;;;-0.96;76.77;99656.41;5028966;28;41178;-79
2021/01/11 09:25:10;;;;;;;26.53;16.03;;;;;;;-0.88;76.28;99659.00;5023746;28;42124;-78
2021/01/11 09:27:39;;;;;;;23.50;14.77;;;;;;;-0.91;76.18;99649.47;5024534;28;41714;-79
2021/01/11 09:30:08;;;;;;;23.97;15.97;;;;;;;-0.76;75.44;99672.81;5007968;28;39348;-79
2021/01/11 09:32:36;;;;;;;25.97;16.03;;;;;;;-0.64;75.72;99671.03;5129683;22;41095;-80
2021/01/11 09:35:05;;;;;;;24.33;16.27;;;;;;;-0.52;74.83;99673.56;5047502;28;41936;-78
2021/01/11 09:37:33;;;;;;;25.03;16.07;;;;;;;-0.43;74.29;99663.97;5065025;28;41882;-80
2021/01/11 09:40:01;;;;;;;23.23;15.30;;;;;;;-0.42;73.04;99670.91;5047426;28;39353;-78
2021/01/11 09:42:29;;;;;;;28.93;16.13;;;;;;;-0.27;73.60;99671.69;5062818;28;42362;-78
2021/01/11 09:44:57;;;;;;;23.13;16.17;;;;;;;-0.18;73.17;99674.25;5163811;22;42451;-80
2021/01/11 09:47:24;;;;;;;25.60;14.83;;;;;;;-0.08;73.62;99670.69;5075645;28;42186;-80
2021/01/11 09:49:51;;;;;;;23.23;15.63;;;;;;;0.07;72.88;99677.53;5054253;28;38734;-80
2021/01/11 09:52:18;;;;;;;24.77;16.50;;;;;;;0.22;72.95;99657.47;5069655;28;42581;-80
2021/01/11 09:57:45;;;;;;;22.47;13.70;;;;;;;0.64;71.21;99663.16;5012033;28;42458;-80
2021/01/11 10:00:15;;;;;;;29.23;17.00;;;;;;;0.68;71.03;99678.75;4997929;28;38952;-81
2021/01/11 10:02:47;;;;;;;24.17;15.33;;;;;;;0.64;71.06;99655.31;4994077;28;40989;-80
2021/01/11 10:05:16;;;;;;;27.40;15.93;;;;;;;0.64;70.90;99639.69;4994362;28;43236;-81
2021/01/11 10:07:44;;;;;;;25.27;15.23;;;;;;;0.84;70.25;99650.78;5112488;22;43987;-80
2021/01/11 10:10:12;;;;;;;28.23;16.53;;;;;;;0.86;70.54;99669.91;5013574;28;41534;-79
2021/01/11 10:12:40;;;;;;;24.40;15.93;;;;;;;0.66;70.60;99658.78;5009683;28;42253;-79
2021/01/11 10:15:09;;;;;;;24.80;16.20;;;;;;;0.56;71.01;99654.56;4993644;28;41876;-80
2021/01/11 10:17:38;;;;;;;26.83;17.17;;;;;;;0.76;70.15;99683.00;5026135;28;42761;-80
2021/01/11 10:20:06;;;;;;;27.37;16.87;;;;;;;0.85;69.75;99668.16;5148189;22;39887;-80
2021/01/11 10:22:33;;;;;;;29.33;17.67;;;;;;;0.87;70.10;99676.81;5133253;22;41704;-80
2021/01/11 10:25:01;;;;;;;26.37;17.23;;;;;;;0.69;70.05;99679.63;5033483;28;41629;-82
2021/01/11 10:27:28;;;;;;;25.27;15.70;;;;;;;0.50;70.33;99680.66;5018706;28;40814;-80
2021/01/11 10:29:55;;;;;;;24.23;15.90;;;;;;;0.56;70.65;99680.63;5029945;28;39920;-80
2021/01/11 10:32:24;;;;;;;26.70;16.33;;;;;;;0.58;70.83;99674.50;5110519;22;40696;-81
2021/01/11 10:34:52;;;;;;;23.93;15.57;;;;;;;0.65;70.61;99654.44;5013349;28;42154;-81
2021/01/11 10:37:19;;;;;;;29.60;17.60;;;;;;;0.97;69.99;99688.91;5045550;28;42081;-82
2021/01/11 10:39:46;;;;;;;30.67;19.03;;;;;;;0.92;69.75;99659.38;5046212;28;40186;-81
2021/01/11 10:45:05;;;;;;;26.47;17.13;;;;;;;1.35;68.89;99671.94;4991283;28;42872;-82
2021/01/11 10:47:33;;;;;;;28.27;17.00;;;;;;;1.37;68.96;99655.38;5010965;28;42561;-82
2021/01/11 10:50:00;;;;;;;25.93;16.73;;;;;;;1.35;68.50;99658.91;4993849;28;38922;-81
2021/01/11 10:52:27;;;;;;;27.70;17.20;;;;;;;1.37;68.20;99667.53;4993202;28;40783;-81
2021/01/11 10:54:54;;;;;;;27.43;17.13;;;;;;;1.25;68.46;99667.69;5116596;22;42586;-81
2021/01/11 10:57:22;;;;;;;26.57;16.77;;;;;;;1.14;68.43;99662.63;5033233;28;41140;-81
2021/01/11 10:59:49;;;;;;;27.23;16.63;;;;;;;1.16;69.06;99650.41;5024162;28;38909;-80
2021/01/11 11:02:16;;;;;;;31.50;20.13;;;;;;;1.04;68.92;99643.59;5013414;28;40701;-81
2021/01/11 11:04:46;;;;;;;27.77;18.03;;;;;;;0.99;69.13;99634.13;5017575;28;43129;-82
2021/01/11 11:07:16;;;;;;;30.33;18.73;;;;;;;1.18;69.20;99647.78;5120517;22;42597;-80
2021/01/11 11:09:43;;;;;;;30.80;18.13;;;;;;;1.36;68.40;99634.53;5045224;28;39980;-81
2021/01/11 11:12:10;;;;;;;26.27;16.43;;;;;;;1.63;67.79;99644.59;5028613;28;41592;-81
2021/01/11 11:14:37;;;;;;;27.27;17.43;;;;;;;1.84;67.80;99640.81;5012559;28;42375;-82
2021/01/11 11:17:04;;;;;;;26.97;17.60;;;;;;;1.98;67.00;99643.22;5104624;22;41451;-82
2021/01/11 11:19:32;;;;;;;29.83;17.63;;;;;;;2.20;67.24;99623.72;5029147;28;38566;-80
2021/01/11 11:22:00;;;;;;;26.00;16.60;;;;;;;2.36;66.78;99611.22;5027709;28;42451;-82
2021/01/11 11:24:27;;;;;;;26.20;17.10;;;;;;;2.48;65.43;99632.78;5012532;28;41864;-81
2021/01/11 11:26:54;;;;;;;25.77;16.03;;;;;;;2.62;65.06;99635.16;5012657;28;41492;-84
2021/01/11 11:29:21;;;;;;;27.93;18.33;;;;;;;2.86;64.41;99629.47;5104616;22;39276;-81
2021/01/11 11:31:50;;;;;;;25.87;17.37;;;;;;;3.11;64.28;99629.84;5031770;28;40683;-81
2021/01/11 11:34:17;;;;;;;25.40;16.97;;;;;;;3.18;63.06;99614.91;5028007;28;43189;-81
2021/01/11 11:36:45;;;;;;;24.37;16.50;;;;;;;3.12;62.35;99631.56;5030325;28;41409;-81
2021/01/11 11:39:13;;;;;;;22.80;15.50;;;;;;;3.07;63.15;99622.09;5027384;28;40146;-80
2021/01/11 11:41:41;;;;;;;25.80;16.97;;;;;;;3.03;62.68;99605.59;5125153;22;42638;-80
2021/01/11 11:44:08;;;;;;;23.67;16.57;;;;;;;3.02;62.01;99582.94;5028118;28;42162;-81
2021/01/11 11:46:35;;;;;;;26.80;17.60;;;;;;;3.22;62.27;99590.38;5029734;28;41404;-82
2021/01/11 11:49:03;;;;;;;23.90;15.50;;;;;;;3.40;61.95;99607.44;5032511;28;39050;-81
2021/01/11 11:51:30;;;;;;;23.87;16.00;;;;;;;3.74;61.77;99610.19;5031416;28;41407;-82
2021/01/11 11:53:57;;;;;;;20.97;15.03;;;;;;;4.05;60.75;99605.09;5111881;23;42830;-82
2021/01/11 11:56:25;;;;;;;21.97;16.80;;;;;;;4.21;60.58;99595.94;5032269;28;42411;-82
2021/01/11 11:58:52;;;;;;;24.40;17.07;;;;;;;4.55;59.78;99609.94;5048203;28;40160;-82
2021/01/11 12:01:20;;;;;;;23.80;16.83;;;;;;;4.58;58.27;99591.47;5047668;28;41868;-82
2021/01/11 12:03:47;;;;;;;24.97;16.80;;;;;;;5.12;58.58;99592.63;5117456;22;41894;-82
2021/01/11 12:06:14;;;;;;;23.50;17.13;;;;;;;5.56;58.50;99593.94;5012748;28;41222;-82
2021/01/11 12:08:41;;;;;;;22.60;16.87;;;;;;;5.55;58.19;99581.72;5012882;28;39938;-82
2021/01/11 12:11:09;;;;;;;23.87;16.83;;;;;;;6.11;56.87;99593.09;5011214;28;41672;-82
2021/01/11 12:13:37;;;;;;;22.70;16.77;;;;;;;6.01;55.69;99594.31;5012241;28;42776;-82
2021/01/11 12:16:08;;;;;;;22.00;15.93;;;;;;;5.49;56.87;99561.72;5118761;23;42118;-82
2021/01/11 12:18:36;;;;;;;22.20;16.40;;;;;;;5.11;57.44;99575.13;5048838;28;40182;-82
2021/01/11 12:21:03;;;;;;;25.53;18.13;;;;;;;4.60;58.70;99546.81;5031371;28;41282;-81
2021/01/11 12:23:31;;;;;;;24.80;18.30;;;;;;;4.29;59.88;99541.56;5032049;28;41872;-82
2021/01/11 12:25:58;;;;;;;26.87;18.50;;;;;;;4.04;59.73;99551.81;5031614;28;41059;-82
2021/01/11 12:28:25;;;;;;;23.57;17.27;;;;;;;3.85;60.42;99540.91;5113701;23;40207;-82
2021/01/11 12:30:53;;;;;;;25.10;17.90;;;;;;;3.62;60.77;99519.66;5031288;28;40995;-82
2021/01/11 12:33:20;;;;;;;26.47;18.40;;;;;;;3.71;61.28;99500.25;5047693;28;42687;-81
2021/01/11 12:35:48;;;;;;;28.53;19.07;;;;;;;4.11;61.45;99515.81;5048533;28;41702;-82
2021/01/11 12:38:15;;;;;;;28.10;19.77;;;;;;;4.15;61.19;99515.69;5049769;28;39810;-82
2021/01/11 12:40:42;;;;;;;27.63;20.10;;;;;;;4.27;61.14;99518.00;5092910;23;42633;-81
2021/01/11 12:43:09;;;;;;;28.70;20.60;;;;;;;4.50;61.13;99520.00;4991535;28;42787;-81
2021/01/11 12:45:37;;;;;;;30.17;20.20;;;;;;;5.08;59.89;99489.44;5007823;28;42172;-81
2021/01/11 12:48:06;;;;;;;25.17;18.90;;;;;;;6.15;58.73;99499.19;5008066;28;40336;-81
2021/01/11 12:50:33;;;;;;;27.30;20.23;;;;;;;7.63;56.04;99518.22;5102222;22;40670;-82
2021/01/11 12:53:00;;;;;;;27.63;20.07;;;;;;;8.23;53.38;99518.34;5048059;28;43347;-82
2021/01/11 12:55:30;;;;;;;24.47;18.30;;;;;;;8.44;53.37;99532.41;5031350;28;42290;-83
2021/01/11 12:57:57;;;;;;;23.23;18.43;;;;;;;8.07;52.47;99490.88;5030875;28;39830;-82
2021/01/11 13:00:25;;;;;;;23.90;18.27;;;;;;;8.40;51.93;99474.56;5014870;28;40983;-82
2021/01/11 13:02:52;;;;;;;24.03;18.30;;;;;;;9.04;50.69;99525.34;5120931;23;42946;-82
2021/01/11 13:05:20;;;;;;;25.23;19.37;;;;;;;9.65;49.16;99517.19;5031293;28;41666;-82
2021/01/11 13:07:47;;;;;;;23.63;19.50;;;;;;;9.91;49.16;99503.53;5031055;28;39888;-82
2021/01/11 13:10:15;;;;;;;23.33;18.70;;;;;;;9.66;48.73;99517.09;5030986;28;40708;-82
2021/01/11 13:12:42;;;;;;;24.07;19.63;;;;;;;9.17;49.19;99525.63;5046895;28;43488;-82
2021/01/11 13:15:10;;;;;;;24.03;19.57;;;;;;;8.61;49.71;99506.16;5118594;22;41942;-82
2021/01/11 13:17:42;;;;;;;23.90;18.63;;;;;;;8.14;51.22;99487.06;5010991;28;39179;-82
2021/01/11 13:20:10;;;;;;;26.37;19.83;;;;;;;7.92;51.40;99494.13;5011184;28;41724;-82
2021/01/11 13:22:38;;;;;;;24.27;19.67;;;;;;;7.54;52.28;99490.47;5012359;28;42865;-82
2021/01/11 13:25:27;;;;;;;25.10;19.77;;;;;;;7.20;52.23;99488.28;5095602;22;40655;31
2021/01/11 13:27:55;;;;;;;26.57;19.70;;;;;;;6.89;53.44;99485.97;4992295;28;39603;-82
2021/01/11 13:30:22;;;;;;;23.27;18.60;;;;;;;6.68;53.81;99479.69;4978313;28;40855;-85
2021/01/11 13:32:51;;;;;;;24.83;18.87;;;;;;;6.43;54.42;99463.94;4959515;28;42033;-82
2021/01/11 13:35:18;;;;;;;26.87;20.80;;;;;;;5.91;54.64;99422.00;4990836;28;42251;-83
2021/01/11 13:37:46;;;;;;;26.57;20.10;;;;;;;6.08;55.41;99472.22;5067284;23;39937;-82
2021/01/11 13:40:14;;;;;;;29.43;21.47;;;;;;;5.88;55.49;99465.03;5019590;28;41403;-83
2021/01/11 13:42:41;;;;;;;24.03;18.80;;;;;;;5.57;56.40;99446.75;5047407;28;42712;-83
2021/01/11 13:45:09;;;;;;;26.37;19.60;;;;;;;5.46;56.74;99455.88;5030798;28;42081;-83
2021/01/11 13:47:48;;;;;;;26.13;19.10;;;;;;;5.11;57.18;99439.47;5026001;28;40074;-82
2021/01/11 13:50:17;;;;;;;23.77;17.40;;;;;;;5.01;57.65;99449.41;5101677;23;40723;-82
2021/01/11 13:52:53;;;;;;;24.67;17.70;;;;;;;4.85;58.09;99447.28;4994778;28;41620;-86
2021/01/11 13:55:20;;;;;;;25.20;18.40;;;;;;;4.70;58.66;99451.22;5020303;28;41469;-82
2021/01/11 13:57:47;;;;;;;24.27;17.03;;;;;;;4.59;58.96;99450.69;5014322;28;39902;-82
2021/01/11 14:00:15;;;;;;;21.47;16.07;;;;;;;4.37;59.49;99429.44;5102436;22;40840;-80
2021/01/11 14:02:43;;;;;;;21.37;16.43;;;;;;;4.28;59.93;99420.09;5009457;28;41598;-83
2021/01/11 14:05:11;;;;;;;22.40;16.97;;;;;;;4.14;60.03;99419.63;5010470;28;41120;-83
2021/01/11 14:07:41;;;;;;;23.30;17.37;;;;;;;4.05;60.52;99422.50;4994563;28;40124;-81
2021/01/11 14:10:09;;;;;;;23.10;16.60;;;;;;;3.92;60.38;99432.44;4994474;28;40694;-82
2021/01/11 14:12:36;;;;;;;23.60;16.97;;;;;;;3.78;60.49;99421.47;5088483;23;43027;-83
2021/01/11 14:15:05;;;;;;;23.73;17.43;;;;;;;3.54;61.12;99406.38;5029884;28;42619;-82
2021/01/11 14:17:32;;;;;;;24.70;17.43;;;;;;;3.34;61.21;99400.78;5030322;28;39661;-82
2021/01/11 14:19:59;;;;;;;24.23;17.87;;;;;;;3.34;61.34;99430.41;5014717;28;40777;-82
2021/01/11 14:22:26;;;;;;;30.53;17.93;;;;;;;3.05;61.78;99393.63;5029987;28;43080;-83
2021/01/11 14:24:53;;;;;;;24.33;17.37;;;;;;;2.99;61.99;99405.09;5116969;23;41492;-84
2021/01/11 14:27:22;;;;;;;24.03;17.13;;;;;;;2.99;62.14;99419.91;5010654;28;40009;-85
2021/01/11 14:29:49;;;;;;;26.33;17.60;;;;;;;2.98;62.64;99428.66;4993859;28;42431;-84
2021/01/11 14:32:16;;;;;;;25.80;16.93;;;;;;;2.91;62.65;99412.25;4994273;28;42085;-84
2021/01/11 14:34:44;;;;;;;23.07;16.43;;;;;;;2.88;62.82;99422.78;4993615;28;42042;-84
2021/01/11 14:37:11;;;;;;;22.57;16.80;;;;;;;2.83;63.03;99414.19;5116784;22;40005;-83
2021/01/11 14:39:38;;;;;;;21.60;15.50;;;;;;;2.75;62.85;99410.88;5030917;28;40672;-84
2021/01/11 14:42:07;;;;;;;25.87;17.63;;;;;;;2.61;63.41;99397.25;5013781;28;41816;-83
2021/01/11 14:44:36;;;;;;;25.43;17.47;;;;;;;2.61;63.12;99407.69;4997640;28;41328;-83
2021/01/11 14:47:04;;;;;;;26.17;17.37;;;;;;;2.49;63.54;99399.22;5115135;22;40636;-82
2021/01/11 14:49:31;;;;;;;23.80;17.90;;;;;;;2.48;63.78;99401.88;5014444;28;40874;-84
2021/01/11 14:51:59;;;;;;;25.87;17.57;;;;;;;2.46;63.79;99399.31;5014112;28;42995;-83
2021/01/11 14:54:26;;;;;;;22.83;16.47;;;;;;;2.46;64.08;99409.78;5013211;28;42084;-82
2021/01/11 14:56:55;;;;;;;23.93;15.80;;;;;;;2.43;63.95;99409.81;5030988;28;40623;-83
2021/01/11 14:59:23;;;;;;;24.23;17.50;;;;;;;2.38;64.19;99401.22;5117362;22;41578;-83
2021/01/11 15:01:52;;;;;;;26.27;17.37;;;;;;;2.23;64.36;99382.34;5013457;28;41992;-82
2021/01/11 15:04:19;;;;;;;23.80;16.53;;;;;;;2.25;64.52;99399.75;5013350;28;42597;-83
2021/01/11 15:06:48;;;;;;;23.17;16.63;;;;;;;2.02;64.59;99365.38;5013747;28;39795;-83
2021/01/11 15:09:15;;;;;;;27.03;16.33;;;;;;;2.09;64.87;99393.13;5013367;28;40690;-83
2021/01/11 15:11:47;;;;;;;22.70;15.63;;;;;;;2.05;64.80;99391.44;5092594;23;43742;-83
2021/01/11 15:14:15;;;;;;;28.97;18.50;;;;;;;1.97;65.05;99383.78;5009769;28;41199;-82
2021/01/11 15:16:42;;;;;;;27.13;17.53;;;;;;;1.95;65.04;99389.91;5010324;28;39957;-83
2021/01/11 15:19:11;;;;;;;24.27;16.57;;;;;;;1.89;65.18;99390.88;4993485;28;42133;-82
2021/01/11 15:21:42;;;;;;;22.90;15.40;;;;;;;1.50;65.62;99340.25;5095541;22;44099;31
2021/01/11 15:24:11;;;;;;;24.93;16.30;;;;;;;1.71;66.04;99386.00;5010315;28;42667;-82
2021/01/11 15:26:38;;;;;;;28.27;17.70;;;;;;;1.52;65.88;99363.72;4996780;28;39277;-82
2021/01/11 15:29:07;;;;;;;22.40;15.93;;;;;;;1.62;66.00;99376.56;4996303;28;40984;-83
2021/01/11 15:31:35;;;;;;;30.67;19.30;;;;;;;1.37;66.10;99364.84;4995839;28;41658;-82
2021/01/11 15:34:02;;;;;;;23.70;16.47;;;;;;;1.44;66.41;99382.13;5086418;23;41356;-82
2021/01/11 15:36:32;;;;;;;26.63;17.23;;;;;;;1.43;66.31;99383.03;5042446;28;40304;-82
2021/01/11 15:39:01;;;;;;;26.17;18.40;;;;;;;1.22;66.82;99359.91;5032557;28;42202;-82
2021/01/11 15:41:29;;;;;;;28.37;17.83;;;;;;;1.13;66.73;99349.63;5047995;28;42882;-81
2021/01/11 15:43:57;;;;;;;25.40;16.33;;;;;;;1.15;67.18;99374.78;5048218;28;42122;-81
2021/01/11 15:46:26;;;;;;;26.10;18.00;;;;;;;0.96;67.54;99369.03;5121458;22;39702;-81
2021/01/11 15:48:55;;;;;;;28.00;19.57;;;;;;;0.91;67.81;99365.63;5044878;28;41170;-82
2021/01/11 15:51:23;;;;;;;26.80;15.80;;;;;;;0.80;68.14;99344.06;5011173;28;41790;-82
2021/01/11 15:53:52;;;;;;;25.60;16.27;;;;;;;0.76;68.14;99357.16;5028312;28;42057;-82
2021/01/11 15:56:19;;;;;;;27.57;18.93;;;;;;;0.84;68.35;99363.13;5012298;28;40742;-82
2021/01/11 15:58:47;;;;;;;28.13;17.53;;;;;;;0.81;68.88;99366.66;5097178;23;40843;-82
2021/01/11 16:01:14;;;;;;;23.70;15.87;;;;;;;0.69;68.49;99353.78;5011422;28;42938;-82
2021/01/11 16:03:41;;;;;;;29.40;19.10;;;;;;;0.67;68.94;99345.13;5015750;28;42267;-82
2021/01/11 16:06:11;;;;;;;25.47;17.63;;;;;;;0.64;69.10;99345.19;5031064;28;39300;-82
2021/01/11 16:08:38;;;;;;;29.10;19.20;;;;;;;0.61;69.22;99338.28;5115342;22;40816;-82
2021/01/11 16:11:07;;;;;;;26.43;17.10;;;;;;;0.62;69.06;99346.94;5027694;28;42786;-82
2021/01/11 16:13:34;;;;;;;26.60;16.93;;;;;;;0.73;69.44;99355.50;5028034;28;41096;-82
2021/01/11 16:16:02;;;;;;;24.57;16.07;;;;;;;0.71;69.58;99357.25;5011883;28;39778;-80
2021/01/11 16:18:29;;;;;;;28.37;17.50;;;;;;;0.61;69.76;99347.84;5027902;28;41623;-82
2021/01/11 16:20:56;;;;;;;30.63;18.87;;;;;;;0.71;69.82;99358.13;5114333;22;42590;-81
2021/01/11 16:23:23;;;;;;;34.00;19.73;;;;;;;0.72;69.92;99358.97;5011645;28;40893;-82
2021/01/11 16:25:51;;;;;;;25.60;16.97;;;;;;;0.74;69.85;99352.00;5027665;28;39850;-82
2021/01/11 16:28:22;;;;;;;29.43;18.60;;;;;;;0.76;69.52;99365.84;5027548;28;43287;-82
2021/01/11 16:30:52;;;;;;;28.90;17.80;;;;;;;0.70;69.81;99365.94;5099648;22;41824;-87
2021/01/11 16:33:20;;;;;;;29.40;18.77;;;;;;;0.73;69.37;99365.91;5090361;22;39333;-83
2021/01/11 16:35:47;;;;;;;30.30;18.57;;;;;;;0.75;69.39;99371.06;5011669;28;39281;-85
2021/01/11 16:38:14;;;;;;;28.10;18.20;;;;;;;0.63;69.93;99348.66;5012061;28;41924;-87
2021/01/11 16:40:42;;;;;;;27.70;18.00;;;;;;;0.68;69.71;99362.50;5011528;28;42066;-83
2021/01/11 16:43:09;;;;;;;28.27;17.83;;;;;;;0.66;69.89;99353.84;5012182;28;42274;-87
2021/01/11 16:45:37;;;;;;;31.70;19.57;;;;;;;0.66;69.98;99346.00;5114482;22;40489;-86
